createdAt,value
2022-12-03T00:01:53.826Z,101657.41
2022-12-03T00:04:25.543Z,101657.10
2022-12-03T00:06:57.191Z,101658.08
2022-12-03T00:09:28.807Z,101660.35
2022-12-03T00:12:00.510Z,101659.11
2022-12-03T00:14:32.231Z,101655.88
2022-12-03T00:17:04.016Z,101652.03
2022-12-03T00:19:35.700Z,101649.65
2022-12-03T00:22:08.166Z,101651.55
2022-12-03T00:24:40.030Z,101647.50
2022-12-03T00:27:11.927Z,101653.63
2022-12-03T00:29:44.160Z,101654.11
2022-12-03T00:32:17.047Z,101650.45
2022-12-03T00:34:48.702Z,101645.44
2022-12-03T00:37:20.464Z,101648.45
2022-12-03T00:39:52.095Z,101649.02
2022-12-03T00:42:23.789Z,101645.13
2022-12-03T00:44:55.777Z,101641.84
2022-12-03T00:47:27.881Z,101641.34
2022-12-03T00:49:59.680Z,101636.65
2022-12-03T00:52:31.341Z,101642.67
2022-12-03T00:55:03.005Z,101645.27
2022-12-03T00:57:37.615Z,101643.90
2022-12-03T01:00:12.166Z,101646.11
2022-12-03T01:02:44.054Z,101645.67
2022-12-03T01:05:16.187Z,101645.66
2022-12-03T01:07:49.063Z,101650.48
2022-12-03T01:10:20.818Z,101646.54
2022-12-03T01:12:52.596Z,101648.29
2022-12-03T01:15:24.328Z,101646.49
2022-12-03T01:17:56.525Z,101644.86
2022-12-03T01:20:28.484Z,101644.49
2022-12-03T01:23:00.459Z,101644.45
2022-12-03T01:25:32.168Z,101643.48
2022-12-03T01:28:04.353Z,101641.39
2022-12-03T01:30:56.212Z,101640.54
2022-12-03T01:33:27.946Z,101636.96
2022-12-03T01:35:59.657Z,101639.39
2022-12-03T01:38:31.355Z,101635.91
2022-12-03T01:41:05.883Z,101641.99
2022-12-03T01:43:40.762Z,101641.08
2022-12-03T01:46:17.398Z,101645.82
2022-12-03T01:48:51.657Z,101643.21
2022-12-03T01:51:25.212Z,101639.11
2022-12-03T01:53:56.988Z,101637.20
2022-12-03T01:56:29.113Z,101628.81
2022-12-03T01:59:03.864Z,101629.40
2022-12-03T02:01:35.935Z,101624.38
2022-12-03T02:04:07.983Z,101621.50
2022-12-03T02:06:39.999Z,101626.10
2022-12-03T02:09:14.145Z,101620.08
2022-12-03T02:11:48.922Z,101617.20
2022-12-03T02:14:23.248Z,101619.21
2022-12-03T02:16:55.311Z,101618.65
2022-12-03T02:19:30.468Z,101613.84
2022-12-03T02:22:09.162Z,101614.05
2022-12-03T02:24:48.123Z,101612.71
2022-12-03T02:27:20.279Z,101613.96
2022-12-03T02:29:52.539Z,101607.11
2022-12-03T02:32:24.878Z,101609.05
2022-12-03T02:34:56.761Z,101608.84
2022-12-03T02:37:31.784Z,101609.42
2022-12-03T02:40:08.055Z,101613.23
2022-12-03T02:42:40.858Z,101612.90
2022-12-03T02:45:13.416Z,101615.28
2022-12-03T02:47:48.217Z,101612.88
2022-12-03T02:50:23.903Z,101615.05
2022-12-03T02:52:57.712Z,101617.85
2022-12-03T02:55:36.741Z,101614.48
2022-12-03T02:58:09.885Z,101617.13
2022-12-03T03:00:43.216Z,101620.11
2022-12-03T03:03:15.300Z,101619.83
2022-12-03T03:05:48.365Z,101618.97
2022-12-03T03:08:20.726Z,101614.52
2022-12-03T03:10:53.224Z,101615.38
2022-12-03T03:13:23.744Z,101612.12
2022-12-03T03:15:55.522Z,101617.69
2022-12-03T03:18:27.459Z,101621.98
2022-12-03T03:20:59.618Z,101617.21
2022-12-03T03:23:31.369Z,101613.06
2022-12-03T03:26:07.506Z,101609.00
2022-12-03T03:28:43.110Z,101605.33
2022-12-03T03:31:17.421Z,101605.83
2022-12-03T03:33:50.918Z,101606.59
2022-12-03T03:36:23.987Z,101604.16
2022-12-03T03:38:56.006Z,101602.71
2022-12-03T03:41:29.130Z,101601.29
2022-12-03T03:44:01.252Z,101594.67
2022-12-03T03:46:33.785Z,101599.84
2022-12-03T03:49:04.542Z,101598.34
2022-12-03T03:51:38.151Z,101602.13
2022-12-03T03:54:10.565Z,101595.95
2022-12-03T03:56:42.855Z,101595.34
2022-12-03T03:59:16.091Z,101597.56
2022-12-03T04:01:46.964Z,101593.73
2022-12-03T04:04:22.496Z,101594.22
2022-12-03T04:06:54.840Z,101592.96
2022-12-03T04:09:26.873Z,101592.61
2022-12-03T04:12:15.976Z,101591.78
2022-12-03T04:14:47.581Z,101587.15
2022-12-03T04:17:18.779Z,101585.91
2022-12-03T04:19:50.364Z,101588.20
2022-12-03T04:22:39.548Z,101583.71
2022-12-03T04:25:30.055Z,101585.45
2022-12-03T04:28:19.698Z,101585.31
2022-12-03T04:30:51.397Z,101583.23
2022-12-03T04:33:46.406Z,101576.20
2022-12-03T04:36:17.999Z,101581.89
2022-12-03T04:38:49.902Z,101581.06
2022-12-03T04:41:21.681Z,101581.34
2022-12-03T04:44:11.221Z,101578.43
2022-12-03T04:46:42.990Z,101577.34
2022-12-03T04:49:14.789Z,101579.19
2022-12-03T04:51:46.755Z,101582.34
2022-12-03T04:54:18.915Z,101577.75
2022-12-03T04:56:50.645Z,101576.83
2022-12-03T04:59:22.342Z,101571.23
2022-12-03T05:01:54.115Z,101570.40
2022-12-03T05:04:26.563Z,101568.32
2022-12-03T05:06:58.308Z,101567.02
2022-12-03T05:09:30.742Z,101563.75
2022-12-03T05:12:02.850Z,101562.59
2022-12-03T05:14:34.780Z,101557.89
2022-12-03T05:17:06.685Z,101557.75
2022-12-03T05:19:56.071Z,101557.01
2022-12-03T05:22:27.724Z,101552.00
2022-12-03T05:24:59.779Z,101553.37
2022-12-03T05:27:31.554Z,101555.71
2022-12-03T05:30:04.415Z,101554.46
2022-12-03T05:32:36.161Z,101554.25
2022-12-03T05:35:10.527Z,101549.42
2022-12-03T05:37:42.171Z,101547.27
2022-12-03T05:40:16.106Z,101541.17
2022-12-03T05:42:57.366Z,101547.14
2022-12-03T05:45:31.083Z,101546.05
2022-12-03T05:48:03.893Z,101549.43
2022-12-03T05:50:38.348Z,101543.13
2022-12-03T05:53:22.171Z,101543.20
2022-12-03T05:55:53.849Z,101545.82
2022-12-03T05:58:25.597Z,101539.98
2022-12-03T06:00:57.338Z,101533.80
2022-12-03T06:03:29.204Z,101532.93
2022-12-03T06:06:02.073Z,101532.02
2022-12-03T06:08:32.265Z,101534.14
2022-12-03T06:11:04.148Z,101533.53
2022-12-03T06:13:35.819Z,101540.61
2022-12-03T06:16:07.977Z,101541.31
2022-12-03T06:18:39.859Z,101539.00
2022-12-03T06:21:11.926Z,101535.38
2022-12-03T06:23:44.977Z,101539.34
2022-12-03T06:26:17.235Z,101539.51
2022-12-03T06:28:49.400Z,101542.83
2022-12-03T06:31:21.133Z,101549.06
2022-12-03T06:33:52.908Z,101550.10
2022-12-03T06:36:26.096Z,101550.84
2022-12-03T06:38:58.130Z,101553.86
2022-12-03T06:41:30.063Z,101551.80
2022-12-03T06:44:01.909Z,101550.48
2022-12-03T06:46:33.581Z,101549.94
2022-12-03T06:49:05.861Z,101551.69
2022-12-03T06:51:38.077Z,101542.59
2022-12-03T06:54:10.229Z,101541.64
2022-12-03T06:56:45.454Z,101545.10
2022-12-03T06:59:17.299Z,101541.97
2022-12-03T07:01:49.503Z,101542.90
2022-12-03T07:04:21.298Z,101544.57
2022-12-03T07:06:53.612Z,101537.09
2022-12-03T07:09:25.260Z,101543.23
2022-12-03T07:11:57.491Z,101538.93
2022-12-03T07:14:29.117Z,101538.16
2022-12-03T07:17:00.761Z,101536.38
2022-12-03T07:19:33.268Z,101531.21
2022-12-03T07:22:03.528Z,101530.25
2022-12-03T07:24:36.753Z,101535.08
2022-12-03T07:27:08.943Z,101526.74
2022-12-03T07:29:42.231Z,101527.10
2022-12-03T07:32:14.001Z,101529.77
2022-12-03T07:34:46.009Z,101529.83
2022-12-03T07:37:22.914Z,101532.80
2022-12-03T07:39:55.128Z,101530.13
2022-12-03T07:42:27.188Z,101532.30
2022-12-03T07:44:59.247Z,101531.50
2022-12-03T07:47:31.319Z,101528.95
2022-12-03T07:50:02.955Z,101530.20
2022-12-03T07:52:34.644Z,101532.29
2022-12-03T07:55:10.489Z,101531.66
2022-12-03T07:57:42.156Z,101530.38
2022-12-03T08:00:16.160Z,101538.23
2022-12-03T08:02:48.238Z,101534.36
2022-12-03T08:05:20.739Z,101532.58
2022-12-03T08:07:53.032Z,101529.17
2022-12-03T08:10:26.919Z,101530.69
2022-12-03T08:13:00.015Z,101524.48
2022-12-03T08:15:37.250Z,101524.65
2022-12-03T08:18:17.006Z,101520.23
2022-12-03T08:20:50.644Z,101520.45
2022-12-03T08:23:24.214Z,101520.00
2022-12-03T08:26:01.909Z,101520.92
2022-12-03T08:28:33.714Z,101518.46
2022-12-03T08:31:18.308Z,101518.09
2022-12-03T08:33:52.160Z,101523.66
2022-12-03T08:36:26.722Z,101524.42
2022-12-03T08:39:02.502Z,101523.80
2022-12-03T08:41:52.213Z,101526.02
2022-12-03T08:44:29.005Z,101522.05
2022-12-03T08:47:13.049Z,101528.85
2022-12-03T08:52:36.922Z,101529.14
2022-12-03T08:55:34.955Z,101528.86
2022-12-03T09:01:42.842Z,101522.09
2022-12-03T09:04:37.737Z,101522.15
2022-12-03T09:07:09.573Z,101522.03
2022-12-03T09:09:46.247Z,101523.20
2022-12-03T09:12:18.141Z,101519.25
2022-12-03T09:14:49.875Z,101516.95
2022-12-03T09:17:22.292Z,101517.17
2022-12-03T09:19:55.309Z,101512.30
2022-12-03T09:22:28.000Z,101509.31
2022-12-03T09:24:58.471Z,101506.75
2022-12-03T09:27:30.627Z,101504.00
2022-12-03T09:30:03.801Z,101501.91
2022-12-03T09:32:36.420Z,101501.67
2022-12-03T09:35:10.585Z,101499.63
2022-12-03T09:37:43.144Z,101499.18
2022-12-03T09:40:17.415Z,101500.77
2022-12-03T09:42:51.047Z,101500.27
2022-12-03T09:45:23.643Z,101494.50
2022-12-03T09:47:53.968Z,101492.75
2022-12-03T09:50:28.065Z,101491.52
2022-12-03T09:53:02.982Z,101493.73
2022-12-03T09:55:34.858Z,101494.95
2022-12-03T09:58:12.822Z,101487.49
2022-12-03T10:00:50.278Z,101481.98
2022-12-03T10:03:29.759Z,101481.04
2022-12-03T10:06:01.873Z,101474.60
2022-12-03T10:08:33.751Z,101472.38
2022-12-03T10:11:06.324Z,101477.21
2022-12-03T10:13:38.741Z,101473.56
2022-12-03T10:16:15.500Z,101466.31
2022-12-03T10:18:51.255Z,101470.35
2022-12-03T10:21:30.276Z,101461.93
2022-12-03T10:24:28.755Z,101459.64
2022-12-03T10:27:02.964Z,101456.30
2022-12-03T10:29:37.074Z,101446.62
2022-12-03T10:32:11.717Z,101444.58
2022-12-03T10:34:45.722Z,101448.46
2022-12-03T10:37:19.823Z,101453.66
2022-12-03T10:40:05.369Z,101458.50
2022-12-03T10:42:41.653Z,101459.94
2022-12-03T10:45:20.868Z,101458.89
2022-12-03T10:48:14.427Z,101454.34
2022-12-03T10:50:53.015Z,101456.23
2022-12-03T10:53:28.358Z,101446.90
2022-12-03T10:56:02.952Z,101447.48
2022-12-03T10:58:46.064Z,101442.72
2022-12-03T11:01:20.012Z,101439.55
2022-12-03T11:03:53.383Z,101435.12
2022-12-03T11:06:25.931Z,101440.18
2022-12-03T11:09:01.391Z,101439.38
2022-12-03T11:11:36.161Z,101436.33
2022-12-03T11:14:11.216Z,101436.34
2022-12-03T11:17:09.796Z,101434.28
2022-12-03T11:19:47.560Z,101428.93
2022-12-03T11:22:43.327Z,101427.56
2022-12-03T11:25:46.867Z,101428.36
2022-12-03T11:28:37.436Z,101426.33
2022-12-03T11:31:31.647Z,101423.09
2022-12-03T11:34:49.095Z,101423.63
2022-12-03T11:37:31.846Z,101422.59
2022-12-03T11:40:39.515Z,101411.47
2022-12-03T11:43:12.869Z,101413.91
2022-12-03T11:45:47.147Z,101412.73
2022-12-03T11:48:20.280Z,101407.70
2022-12-03T11:50:55.312Z,101405.08
2022-12-03T11:53:32.569Z,101403.73
2022-12-03T11:59:05.386Z,101407.77
2022-12-03T12:04:34.285Z,101398.55
2022-12-03T12:07:08.304Z,101401.53
2022-12-03T12:09:55.828Z,101399.37
2022-12-03T12:12:38.514Z,101396.98
2022-12-03T12:15:46.962Z,101398.90
2022-12-03T12:18:43.481Z,101399.90
2022-12-03T12:21:43.806Z,101396.68
2022-12-03T12:24:43.241Z,101397.33
2022-12-03T12:27:17.031Z,101396.34
2022-12-03T12:29:54.697Z,101395.88
2022-12-03T12:32:30.146Z,101388.66
2022-12-03T12:35:06.812Z,101391.47
2022-12-03T12:37:47.334Z,101393.49
2022-12-03T12:40:24.906Z,101391.34
2022-12-03T12:42:58.259Z,101393.91
2022-12-03T12:45:31.831Z,101399.48
2022-12-03T12:48:17.368Z,101402.67
2022-12-03T12:50:52.668Z,101398.52
2022-12-03T12:53:27.302Z,101389.27
2022-12-03T12:56:00.825Z,101392.11
2022-12-03T12:58:37.752Z,101384.58
2022-12-03T13:01:22.067Z,101380.30
2022-12-03T13:03:54.803Z,101377.26
2022-12-03T13:06:26.946Z,101376.10
2022-12-03T13:09:01.258Z,101376.02
2022-12-03T13:11:42.007Z,101374.58
2022-12-03T13:14:19.228Z,101369.83
2022-12-03T13:16:52.607Z,101384.75
2022-12-03T13:22:20.139Z,101384.83
2022-12-03T13:27:48.568Z,101377.64
2022-12-03T13:30:21.923Z,101380.95
2022-12-03T13:32:57.732Z,101376.03
2022-12-03T13:35:35.045Z,101380.30
2022-12-03T13:38:14.548Z,101383.71
2022-12-03T13:40:46.420Z,101375.23
2022-12-03T13:43:19.952Z,101367.48
2022-12-03T13:45:54.091Z,101366.05
2022-12-03T13:51:26.906Z,101368.16
2022-12-03T13:54:01.051Z,101368.47
2022-12-03T13:56:33.874Z,101367.23
2022-12-03T13:59:05.933Z,101368.38
2022-12-03T14:01:37.637Z,101364.23
2022-12-03T14:04:10.153Z,101363.17
2022-12-03T14:06:42.132Z,101364.13
2022-12-03T14:09:13.906Z,101362.38
2022-12-03T14:12:06.284Z,101364.55
2022-12-03T14:14:39.910Z,101370.19
2022-12-03T14:17:14.645Z,101371.86
2022-12-03T14:19:47.738Z,101366.55
2022-12-03T14:22:23.210Z,101361.41
2022-12-03T14:24:55.932Z,101360.23
2022-12-03T14:30:15.075Z,101355.06
2022-12-03T14:32:57.446Z,101355.21
2022-12-03T14:35:29.818Z,101351.59
2022-12-03T14:38:00.281Z,101343.35
2022-12-03T14:40:32.235Z,101346.02
2022-12-03T14:43:04.328Z,101346.79
2022-12-03T14:45:36.078Z,101342.23
2022-12-03T14:48:09.115Z,101344.68
2022-12-03T14:50:41.097Z,101349.85
2022-12-03T14:53:12.790Z,101358.46
2022-12-03T14:55:46.216Z,101361.33
2022-12-03T14:58:27.211Z,101362.20
2022-12-03T15:00:59.126Z,101366.15
2022-12-03T15:03:30.750Z,101365.75
2022-12-03T15:06:02.392Z,101362.77
2022-12-03T15:08:34.760Z,101361.55
2022-12-03T15:11:06.827Z,101361.17
2022-12-03T15:13:45.576Z,101356.55
2022-12-03T15:16:17.530Z,101362.42
2022-12-03T15:18:50.454Z,101359.20
2022-12-03T15:21:22.595Z,101358.09
2022-12-03T15:23:54.200Z,101361.46
2022-12-03T15:26:26.263Z,101364.05
2022-12-03T15:28:58.313Z,101365.32
2022-12-03T15:31:30.043Z,101368.15
2022-12-03T15:36:51.118Z,101366.98
2022-12-03T15:39:22.984Z,101367.86
2022-12-03T15:41:54.963Z,101369.09
2022-12-03T15:44:26.615Z,101363.50
2022-12-03T15:46:58.359Z,101365.70
2022-12-03T15:49:29.989Z,101360.59
2022-12-03T15:52:01.754Z,101360.09
2022-12-03T15:54:33.684Z,101350.56
2022-12-03T15:57:05.614Z,101352.30
2022-12-03T15:59:37.691Z,101345.84
2022-12-03T16:02:09.820Z,101349.27
2022-12-03T16:04:41.777Z,101344.02
2022-12-03T16:07:13.775Z,101349.86
2022-12-03T16:09:50.995Z,101345.77
2022-12-03T16:12:23.203Z,101355.30
2022-12-03T16:14:54.932Z,101355.98
2022-12-03T16:17:26.634Z,101359.98
2022-12-03T16:19:58.329Z,101355.32
2022-12-03T16:22:30.088Z,101361.76
2022-12-03T16:27:58.565Z,101359.13
2022-12-03T16:30:30.472Z,101360.27
2022-12-03T16:33:03.426Z,101360.81
2022-12-03T16:35:38.181Z,101359.06
2022-12-03T16:38:16.247Z,101361.73
2022-12-03T16:40:48.049Z,101355.91
2022-12-03T16:43:34.728Z,101355.98
2022-12-03T16:46:20.825Z,101355.86
2022-12-03T16:48:53.016Z,101359.04
2022-12-03T16:51:25.377Z,101364.37
2022-12-03T16:53:57.433Z,101362.44
2022-12-03T16:56:29.095Z,101364.20
2022-12-03T16:59:02.233Z,101362.43
2022-12-03T17:01:34.212Z,101367.55
2022-12-03T17:04:05.890Z,101363.78
2022-12-03T17:06:38.030Z,101363.17
2022-12-03T17:09:09.689Z,101362.34
2022-12-03T17:11:41.434Z,101362.24
2022-12-03T17:14:13.703Z,101359.66
2022-12-03T17:16:45.711Z,101351.88
2022-12-03T17:19:17.786Z,101349.58
2022-12-03T17:21:49.418Z,101345.80
2022-12-03T17:24:21.418Z,101343.45
2022-12-03T17:26:53.326Z,101342.83
2022-12-03T17:29:25.801Z,101344.52
2022-12-03T17:31:57.607Z,101345.21
2022-12-03T17:34:29.746Z,101344.39
2022-12-03T17:37:01.481Z,101341.73
2022-12-03T17:39:33.296Z,101339.61
2022-12-03T17:42:05.122Z,101341.95
2022-12-03T17:44:37.248Z,101346.47
2022-12-03T17:47:08.912Z,101346.40
2022-12-03T17:49:40.836Z,101351.17
2022-12-03T17:52:12.555Z,101349.88
2022-12-03T17:55:09.205Z,101351.11
2022-12-03T17:57:36.023Z,101345.89
2022-12-03T18:00:10.318Z,101348.46
2022-12-03T18:02:45.447Z,101351.08
2022-12-03T18:05:17.227Z,101350.77
2022-12-03T18:07:49.333Z,101346.21
2022-12-03T18:10:21.098Z,101347.92
2022-12-03T18:12:55.832Z,101343.54
2022-12-03T18:15:30.180Z,101340.77
2022-12-03T18:18:02.214Z,101338.61
2022-12-03T18:20:33.933Z,101338.73
2022-12-03T18:23:06.161Z,101342.63
2022-12-03T18:25:38.306Z,101335.11
2022-12-03T18:28:09.936Z,101333.92
2022-12-03T18:30:44.051Z,101333.84
2022-12-03T18:33:18.453Z,101337.91
2022-12-03T18:35:53.034Z,101330.31
2022-12-03T18:38:29.026Z,101329.33
2022-12-03T18:41:01.665Z,101329.55
2022-12-03T18:43:33.618Z,101324.70
2022-12-03T18:46:09.631Z,101320.85
2022-12-03T18:48:50.389Z,101316.59
2022-12-03T18:51:23.831Z,101317.92
2022-12-03T18:53:55.669Z,101329.20
2022-12-03T18:56:27.458Z,101329.20
2022-12-03T18:58:59.217Z,101333.80
2022-12-03T19:01:31.258Z,101335.27
2022-12-03T19:04:03.045Z,101335.04
2022-12-03T19:06:34.721Z,101333.25
2022-12-03T19:09:06.605Z,101332.62
2022-12-03T19:11:38.248Z,101332.94
2022-12-03T19:14:10.970Z,101333.52
2022-12-03T19:16:42.090Z,101333.96
2022-12-03T19:19:13.886Z,101339.89
2022-12-03T19:21:45.610Z,101339.77
2022-12-03T19:24:24.367Z,101340.41
2022-12-03T19:26:56.682Z,101340.98
2022-12-03T19:29:28.514Z,101339.80
2022-12-03T19:32:00.487Z,101341.79
2022-12-03T19:34:32.636Z,101343.73
2022-12-03T19:37:04.623Z,101340.18
2022-12-03T19:39:36.231Z,101337.08
2022-12-03T19:42:08.121Z,101338.98
2022-12-03T19:44:40.147Z,101342.33
2022-12-03T19:47:11.823Z,101342.45
2022-12-03T19:49:43.497Z,101341.64
2022-12-03T19:52:15.193Z,101345.86
2022-12-03T19:54:47.101Z,101342.91
2022-12-03T19:57:23.239Z,101345.38
2022-12-03T19:59:55.635Z,101345.80
2022-12-03T20:02:27.985Z,101345.68
2022-12-03T20:05:00.039Z,101339.89
2022-12-03T20:07:31.972Z,101340.34
2022-12-03T20:10:04.026Z,101340.98
2022-12-03T20:12:35.948Z,101336.05
2022-12-03T20:15:09.499Z,101344.48
2022-12-03T20:17:41.591Z,101344.24
2022-12-03T20:20:14.264Z,101339.27
2022-12-03T20:22:44.361Z,101341.46
2022-12-03T20:25:19.016Z,101342.45
2022-12-03T20:27:50.891Z,101340.85
2022-12-03T20:30:23.036Z,101345.08
2022-12-03T20:32:55.694Z,101343.27
2022-12-03T20:35:27.859Z,101337.17
2022-12-03T20:37:59.835Z,101336.38
2022-12-03T20:40:31.586Z,101330.77
2022-12-03T20:43:03.621Z,101326.71
2022-12-03T20:45:35.517Z,101325.97
2022-12-03T20:48:08.008Z,101323.80
2022-12-03T20:50:41.699Z,101322.98
2022-12-03T20:53:27.939Z,101322.40
2022-12-03T20:56:00.671Z,101317.48
2022-12-03T20:58:31.528Z,101317.02
2022-12-03T21:01:15.572Z,101314.06
2022-12-03T21:03:49.413Z,101309.50
2022-12-03T21:06:22.250Z,101309.76
2022-12-03T21:08:55.157Z,101312.67
2022-12-03T21:11:30.689Z,101319.75
2022-12-03T21:14:03.594Z,101318.48
2022-12-03T21:17:06.578Z,101320.86
2022-12-03T21:19:31.060Z,101323.98
2022-12-03T21:22:02.953Z,101321.52
2022-12-03T21:24:35.832Z,101320.88
2022-12-03T21:27:09.038Z,101314.66
2022-12-03T21:29:41.017Z,101312.98
2022-12-03T21:32:15.206Z,101313.04
2022-12-03T21:34:47.746Z,101314.97
2022-12-03T21:37:19.677Z,101313.67
2022-12-03T21:39:51.518Z,101312.90
2022-12-03T21:42:35.693Z,101313.38
2022-12-03T21:45:10.957Z,101309.40
2022-12-03T21:47:43.297Z,101306.11
2022-12-03T21:50:16.024Z,101301.74
2022-12-03T21:52:46.239Z,101302.02
2022-12-03T21:55:17.980Z,101301.31
2022-12-03T21:57:55.900Z,101293.48
2022-12-03T22:00:29.031Z,101290.65
2022-12-03T22:03:00.869Z,101285.70
2022-12-03T22:05:33.924Z,101284.55
2022-12-03T22:08:07.454Z,101286.52
2022-12-03T22:10:39.770Z,101286.27
2022-12-03T22:13:12.215Z,101281.04
2022-12-03T22:15:44.197Z,101283.27
2022-12-03T22:18:15.948Z,101279.00
2022-12-03T22:20:47.637Z,101278.90
2022-12-03T22:23:19.593Z,101284.68
2022-12-03T22:26:00.774Z,101278.73
2022-12-03T22:28:32.905Z,101283.77
2022-12-03T22:31:08.285Z,101283.98
2022-12-03T22:33:40.585Z,101280.67
2022-12-03T22:36:20.074Z,101277.68
2022-12-03T22:38:54.271Z,101279.54
2022-12-03T22:41:25.931Z,101282.05
2022-12-03T22:43:57.616Z,101280.60
2022-12-03T22:46:32.219Z,101279.77
2022-12-03T22:49:07.934Z,101280.84
2022-12-03T22:51:40.744Z,101284.00
2022-12-03T22:54:12.553Z,101279.73
2022-12-03T22:56:44.417Z,101276.83
2022-12-03T22:59:16.089Z,101274.92
2022-12-03T23:01:48.505Z,101274.86
2022-12-03T23:04:20.210Z,101276.72
2022-12-03T23:06:54.698Z,101279.22
2022-12-03T23:09:26.614Z,101281.61
2022-12-03T23:11:58.229Z,101281.63
2022-12-03T23:14:30.002Z,101280.41
2022-12-03T23:17:01.651Z,101279.19
2022-12-03T23:19:33.284Z,101277.88
2022-12-03T23:22:04.840Z,101273.77
2022-12-03T23:24:39.176Z,101267.71
2022-12-03T23:27:10.983Z,101264.61
2022-12-03T23:29:42.595Z,101257.73
2022-12-03T23:32:14.269Z,101251.60
2022-12-03T23:34:46.624Z,101243.77
2022-12-03T23:37:19.116Z,101242.05
2022-12-03T23:39:51.103Z,101236.87
2022-12-03T23:42:22.963Z,101232.38
2022-12-03T23:44:54.852Z,101235.47
2022-12-03T23:47:26.717Z,101231.55
2022-12-03T23:49:58.797Z,101235.20
2022-12-03T23:52:30.373Z,101232.77
2022-12-03T23:55:02.081Z,101224.05
2022-12-03T23:57:34.781Z,101224.96
